createdAt,value
2019-06-20T00:00:42.202Z,16.00
2019-06-20T00:01:34.473Z,16.00
2019-06-20T00:02:34.769Z,16.00
2019-06-20T00:03:34.788Z,16.00
2019-06-20T00:04:34.755Z,16.00
2019-06-20T00:05:34.729Z,12.00
2019-06-20T00:06:34.725Z,12.00
2019-06-20T00:07:34.720Z,12.00
2019-06-20T00:08:34.407Z,12.00
2019-06-20T00:09:34.387Z,12.00
2019-06-20T00:10:34.700Z,16.00
2019-06-20T00:11:34.363Z,16.00
2019-06-20T00:12:34.344Z,16.00
2019-06-20T00:13:34.696Z,16.00
2019-06-20T00:14:34.327Z,16.00
2019-06-20T00:15:34.311Z,16.00
2019-06-20T00:16:34.652Z,16.00
2019-06-20T00:17:34.298Z,16.00
2019-06-20T00:18:34.314Z,16.00
2019-06-20T00:19:34.556Z,16.00
2019-06-20T00:20:34.257Z,16.00
2019-06-20T00:21:34.251Z,16.00
2019-06-20T00:22:34.534Z,16.00
2019-06-20T00:23:34.229Z,16.00
2019-06-20T00:24:34.228Z,20.00
2019-06-20T00:25:34.539Z,20.00
2019-06-20T00:26:34.192Z,20.00
2019-06-20T00:27:34.181Z,16.00
2019-06-20T00:28:34.491Z,16.00
2019-06-20T00:29:34.162Z,16.00
2019-06-20T00:30:34.165Z,16.00
2019-06-20T00:31:34.420Z,20.00
2019-06-20T00:33:43.332Z,20.00
2019-06-20T00:34:43.328Z,20.00
2019-06-20T00:35:43.278Z,20.00
2019-06-20T00:36:42.977Z,20.00
2019-06-20T00:37:42.953Z,20.00
2019-06-20T00:38:43.321Z,20.00
2019-06-20T00:39:43.300Z,20.00
2019-06-20T00:40:43.228Z,20.00
2019-06-20T00:41:43.206Z,20.00
2019-06-20T00:42:42.911Z,20.00
2019-06-20T00:43:43.188Z,24.00
2019-06-20T00:44:42.941Z,24.00
2019-06-20T00:45:42.879Z,24.00
2019-06-20T00:46:43.153Z,24.00
2019-06-20T00:47:42.853Z,20.00
2019-06-20T00:48:42.832Z,24.00
2019-06-20T00:49:43.147Z,24.00
2019-06-20T00:50:42.849Z,24.00
2019-06-20T00:51:42.797Z,28.00
2019-06-20T00:52:43.115Z,28.00
2019-06-20T00:53:42.784Z,28.00
2019-06-20T00:54:42.758Z,28.00
2019-06-20T00:55:43.063Z,24.00
2019-06-20T00:56:42.799Z,24.00
2019-06-20T00:57:42.734Z,28.00
2019-06-20T00:58:42.977Z,28.00
2019-06-20T00:59:42.714Z,28.00
2019-06-20T01:00:42.691Z,28.00
2019-06-20T01:01:42.905Z,28.00
2019-06-20T01:02:42.692Z,28.00
2019-06-20T01:03:42.659Z,32.00
2019-06-20T01:04:49.380Z,32.00
2019-06-20T01:05:42.942Z,28.00
2019-06-20T01:06:42.960Z,32.00
2019-06-20T01:07:42.926Z,32.00
2019-06-20T01:08:42.988Z,32.00
2019-06-20T01:09:42.928Z,36.00
2019-06-20T01:10:42.595Z,36.00
2019-06-20T01:11:42.569Z,36.00
2019-06-20T01:12:42.868Z,36.00
2019-06-20T01:13:42.556Z,36.00
2019-06-20T01:14:42.547Z,36.00
2019-06-20T01:15:43.964Z,40.00
2019-06-20T01:16:42.514Z,40.00
2019-06-20T01:17:42.503Z,40.00
2019-06-20T01:18:42.831Z,40.00
2019-06-20T01:19:42.538Z,44.00
2019-06-20T01:20:42.477Z,40.00
2019-06-20T01:21:42.824Z,44.00
2019-06-20T01:22:42.449Z,48.00
2019-06-20T01:23:42.441Z,44.00
2019-06-20T01:24:42.745Z,48.00
2019-06-20T01:25:42.434Z,48.00
2019-06-20T01:26:42.410Z,48.00
2019-06-20T01:27:42.725Z,48.00
2019-06-20T01:28:42.382Z,52.00
2019-06-20T01:29:42.367Z,52.00
2019-06-20T01:30:42.688Z,52.00
2019-06-20T01:31:42.364Z,56.00
2019-06-20T01:32:42.333Z,56.00
2019-06-20T01:33:42.635Z,56.00
2019-06-20T01:34:42.322Z,56.00
2019-06-20T01:35:42.300Z,60.00
2019-06-20T01:36:49.450Z,60.00
2019-06-20T01:37:42.516Z,64.00
2019-06-20T01:38:42.581Z,60.00
2019-06-20T01:39:42.622Z,64.00
2019-06-20T01:40:42.569Z,64.00
2019-06-20T01:41:42.646Z,64.00
2019-06-20T01:42:42.235Z,68.00
2019-06-20T01:43:50.568Z,64.00
2019-06-20T01:44:42.502Z,68.00
2019-06-20T01:45:42.197Z,72.00
2019-06-20T01:46:42.175Z,72.00
2019-06-20T01:47:42.531Z,72.00
2019-06-20T01:48:42.154Z,76.00
2019-06-20T01:49:42.141Z,72.00
2019-06-20T01:50:42.400Z,76.00
2019-06-20T01:51:42.121Z,76.00
2019-06-20T01:52:42.121Z,80.00
2019-06-20T01:53:42.389Z,80.00
2019-06-20T01:54:42.092Z,84.00
2019-06-20T01:55:42.077Z,84.00
2019-06-20T01:56:42.436Z,88.00
2019-06-20T01:57:42.060Z,92.00
2019-06-20T01:58:42.054Z,96.00
2019-06-20T01:59:42.435Z,96.00
2019-06-20T02:00:42.024Z,104.00
2019-06-20T02:01:42.010Z,108.00
2019-06-20T02:02:42.312Z,112.00
2019-06-20T02:03:42.026Z,116.00
2019-06-20T02:04:41.979Z,116.00
2019-06-20T02:05:42.297Z,120.00
2019-06-20T02:06:41.961Z,128.00
2019-06-20T02:07:41.942Z,132.00
2019-06-20T02:08:48.438Z,140.00
2019-06-20T02:09:42.266Z,144.00
2019-06-20T02:10:42.258Z,148.00
2019-06-20T02:11:42.239Z,152.00
2019-06-20T02:12:42.265Z,156.00
2019-06-20T02:13:42.226Z,160.00
2019-06-20T02:14:41.907Z,164.00
2019-06-20T02:15:41.854Z,172.00
2019-06-20T02:16:42.163Z,176.00
2019-06-20T02:17:41.829Z,176.00
2019-06-20T02:18:41.817Z,180.00
2019-06-20T02:19:42.165Z,184.00
2019-06-20T02:20:41.831Z,188.00
2019-06-20T02:21:41.783Z,192.00
2019-06-20T02:22:42.047Z,196.00
2019-06-20T02:23:41.766Z,204.00
2019-06-20T02:24:41.749Z,208.00
2019-06-20T02:25:42.073Z,212.00
2019-06-20T02:26:41.735Z,216.00
2019-06-20T02:27:41.707Z,220.00
2019-06-20T02:28:42.005Z,228.00
2019-06-20T02:29:41.707Z,228.00
2019-06-20T02:30:41.680Z,232.00
2019-06-20T02:31:42.048Z,236.00
2019-06-20T02:32:41.664Z,244.00
2019-06-20T02:33:41.647Z,252.00
2019-06-20T02:34:41.945Z,260.00
2019-06-20T02:35:41.628Z,264.00
2019-06-20T02:36:41.653Z,268.00
2019-06-20T02:37:42.421Z,272.00
2019-06-20T02:38:41.652Z,276.00
2019-06-20T02:39:41.897Z,288.00
2019-06-20T02:41:50.639Z,296.00
2019-06-20T02:42:50.441Z,300.00
2019-06-20T02:43:50.728Z,296.00
2019-06-20T02:44:50.718Z,304.00
2019-06-20T02:45:50.393Z,308.00
2019-06-20T02:46:50.691Z,308.00
2019-06-20T02:47:50.775Z,312.00
2019-06-20T02:48:50.658Z,312.00
2019-06-20T02:49:50.663Z,312.00
2019-06-20T02:50:50.342Z,324.00
2019-06-20T02:51:50.635Z,340.00
2019-06-20T02:52:50.681Z,344.00
2019-06-20T02:53:50.308Z,344.00
2019-06-20T02:54:50.290Z,332.00
2019-06-20T02:55:50.597Z,332.00
2019-06-20T02:56:50.273Z,340.00
2019-06-20T02:57:50.268Z,328.00
2019-06-20T02:58:50.622Z,332.00
2019-06-20T02:59:50.245Z,336.00
2019-06-20T03:00:50.237Z,360.00
2019-06-20T03:01:50.527Z,376.00
2019-06-20T03:02:50.211Z,376.00
2019-06-20T03:03:50.199Z,376.00
2019-06-20T03:04:50.518Z,380.00
2019-06-20T03:05:50.173Z,388.00
2019-06-20T03:06:50.169Z,388.00
2019-06-20T03:07:50.498Z,396.00
2019-06-20T03:08:50.180Z,404.00
2019-06-20T03:09:50.128Z,408.00
2019-06-20T03:10:50.327Z,416.00
2019-06-20T03:11:50.114Z,432.00
2019-06-20T03:12:57.952Z,436.00
2019-06-20T03:13:50.417Z,436.00
2019-06-20T03:14:50.441Z,440.00
2019-06-20T03:15:50.379Z,440.00
2019-06-20T03:16:50.432Z,436.00
2019-06-20T03:17:50.328Z,436.00
2019-06-20T03:18:50.029Z,448.00
2019-06-20T03:19:50.034Z,456.00
2019-06-20T03:20:50.480Z,464.00
2019-06-20T03:21:49.996Z,472.00
2019-06-20T03:22:49.988Z,480.00
2019-06-20T03:23:50.276Z,480.00
2019-06-20T03:24:49.971Z,492.00
2019-06-20T03:25:49.993Z,500.00
2019-06-20T03:26:49.938Z,508.00
2019-06-20T03:27:50.520Z,516.00
2019-06-20T03:28:50.229Z,520.00
2019-06-20T03:29:49.911Z,528.00
2019-06-20T03:30:49.905Z,532.00
2019-06-20T03:31:50.300Z,532.00
2019-06-20T03:32:49.880Z,540.00
2019-06-20T03:33:49.886Z,552.00
2019-06-20T03:34:50.191Z,568.00
2019-06-20T03:35:49.846Z,560.00
2019-06-20T03:36:49.846Z,556.00
2019-06-20T03:37:50.409Z,544.00
2019-06-20T03:38:49.840Z,552.00
2019-06-20T03:39:50.116Z,568.00
2019-06-20T03:40:49.791Z,572.00
2019-06-20T03:41:49.769Z,588.00
2019-06-20T03:42:50.002Z,592.00
2019-06-20T03:43:49.763Z,604.00
2019-06-20T03:45:02.010Z,600.00
2019-06-20T03:45:49.961Z,592.00
2019-06-20T03:46:50.052Z,568.00
2019-06-20T03:47:50.166Z,372.00
2019-06-20T03:48:49.981Z,528.00
2019-06-20T03:49:50.024Z,584.00
2019-06-20T03:50:49.676Z,376.00
2019-06-20T03:51:51.646Z,404.00
2019-06-20T03:52:50.025Z,556.00
2019-06-20T03:53:49.649Z,596.00
2019-06-20T03:54:49.626Z,632.00
2019-06-20T03:55:49.893Z,648.00
2019-06-20T03:56:49.610Z,644.00
2019-06-20T03:57:49.594Z,664.00
2019-06-20T03:58:49.919Z,676.00
2019-06-20T03:59:49.571Z,716.00
2019-06-20T04:00:49.564Z,728.00
2019-06-20T04:01:49.871Z,748.00
2019-06-20T04:02:49.541Z,772.00
2019-06-20T04:03:49.571Z,776.00
2019-06-20T04:04:49.743Z,768.00
2019-06-20T04:05:49.507Z,752.00
2019-06-20T04:06:49.489Z,768.00
2019-06-20T04:07:49.844Z,784.00
2019-06-20T04:08:49.476Z,792.00
2019-06-20T04:09:49.472Z,760.00
2019-06-20T04:10:49.756Z,704.00
2019-06-20T04:11:49.438Z,752.00
2019-06-20T04:12:49.422Z,792.00
2019-06-20T04:13:49.709Z,796.00
2019-06-20T04:14:49.446Z,792.00
2019-06-20T04:15:49.399Z,788.00
2019-06-20T04:16:56.327Z,804.00
2019-06-20T04:17:49.374Z,800.00
2019-06-20T04:18:49.691Z,804.00
2019-06-20T04:19:49.651Z,812.00
2019-06-20T04:20:49.733Z,812.00
2019-06-20T04:21:49.632Z,788.00
2019-06-20T04:22:49.670Z,820.00
2019-06-20T04:23:49.709Z,812.00
2019-06-20T04:24:49.295Z,844.00
2019-06-20T04:25:49.293Z,868.00
2019-06-20T04:26:49.607Z,876.00
2019-06-20T04:27:49.310Z,904.00
2019-06-20T04:28:49.562Z,912.00
2019-06-20T04:29:49.244Z,892.00
2019-06-20T04:30:49.278Z,872.00
2019-06-20T04:31:49.603Z,868.00
2019-06-20T04:32:49.201Z,864.00
2019-06-20T04:33:49.186Z,860.00
2019-06-20T04:34:49.541Z,868.00
2019-06-20T04:35:49.239Z,860.00
2019-06-20T04:36:49.164Z,852.00
2019-06-20T04:37:49.462Z,820.00
2019-06-20T04:38:49.148Z,756.00
2019-06-20T04:39:49.122Z,752.00
2019-06-20T04:40:49.433Z,828.00
2019-06-20T04:41:49.113Z,852.00
2019-06-20T04:42:49.096Z,876.00
2019-06-20T04:43:49.463Z,892.00
2019-06-20T04:44:49.117Z,900.00
2019-06-20T04:45:49.059Z,916.00
2019-06-20T04:46:49.365Z,928.00
2019-06-20T04:47:49.045Z,924.00
2019-06-20T04:48:55.505Z,912.00
2019-06-20T04:49:49.236Z,908.00
2019-06-20T04:50:49.281Z,880.00
2019-06-20T04:51:49.265Z,924.00
2019-06-20T04:52:49.322Z,928.00
2019-06-20T04:53:49.354Z,924.00
2019-06-20T04:54:49.243Z,956.00
2019-06-20T04:55:48.949Z,920.00
2019-06-20T04:56:49.313Z,892.00
2019-06-20T04:57:48.919Z,956.00
2019-06-20T04:58:48.930Z,996.00
2019-06-20T04:59:49.209Z,1028.00
2019-06-20T05:00:48.894Z,1020.00
2019-06-20T05:01:48.903Z,1024.00
2019-06-20T05:02:49.196Z,1024.00
2019-06-20T05:03:48.956Z,1016.00
2019-06-20T05:04:48.846Z,956.00
2019-06-20T05:05:49.145Z,892.00
2019-06-20T05:06:48.824Z,564.00
2019-06-20T05:07:48.809Z,560.00
2019-06-20T05:08:49.106Z,656.00
2019-06-20T05:09:48.796Z,472.00
2019-06-20T05:10:48.824Z,1012.00
2019-06-20T05:11:49.101Z,1040.00
2019-06-20T05:12:48.769Z,1048.00
2019-06-20T05:13:48.741Z,1052.00
2019-06-20T05:14:49.054Z,1068.00
2019-06-20T05:15:52.923Z,1060.00
2019-06-20T05:16:48.718Z,1068.00
2019-06-20T05:17:48.986Z,1056.00
2019-06-20T05:18:48.689Z,1044.00
2019-06-20T05:19:48.684Z,1024.00
2019-06-20T05:20:55.408Z,1008.00
2019-06-20T05:21:48.997Z,960.00
2019-06-20T05:22:48.947Z,1044.00
2019-06-20T05:23:48.946Z,1044.00
2019-06-20T05:24:48.993Z,1044.00
2019-06-20T05:25:49.026Z,1048.00
2019-06-20T05:26:48.615Z,1036.00
2019-06-20T05:27:48.673Z,1000.00
2019-06-20T05:28:48.888Z,1008.00
2019-06-20T05:29:48.565Z,1020.00
2019-06-20T05:30:48.553Z,1032.00
2019-06-20T05:31:48.825Z,1052.00
2019-06-20T05:32:48.538Z,1064.00
2019-06-20T05:33:48.523Z,1072.00
2019-06-20T05:34:48.880Z,1076.00
2019-06-20T05:35:48.505Z,1076.00
2019-06-20T05:36:48.525Z,1084.00
2019-06-20T05:37:48.796Z,1076.00
2019-06-20T05:38:48.463Z,1084.00
2019-06-20T05:39:48.454Z,1080.00
2019-06-20T05:40:48.790Z,1080.00
2019-06-20T05:41:48.433Z,1088.00
2019-06-20T05:42:48.438Z,1088.00
2019-06-20T05:43:48.724Z,1092.00
2019-06-20T05:44:48.406Z,1084.00
2019-06-20T05:45:48.883Z,1080.00
2019-06-20T05:46:48.697Z,1072.00
2019-06-20T05:47:48.369Z,1072.00
2019-06-20T05:48:48.363Z,1068.00
2019-06-20T05:49:48.608Z,1056.00
2019-06-20T05:50:48.638Z,1072.00
2019-06-20T05:51:48.324Z,1076.00
2019-06-20T05:52:54.844Z,1088.00
2019-06-20T05:53:48.309Z,1088.00
2019-06-20T05:54:48.560Z,1096.00
2019-06-20T05:55:48.627Z,1100.00
2019-06-20T05:56:48.558Z,1100.00
2019-06-20T05:57:48.542Z,1100.00
2019-06-20T05:58:48.614Z,1100.00
2019-06-20T05:59:48.568Z,1092.00
2019-06-20T06:00:48.224Z,1092.00
2019-06-20T06:01:48.209Z,1092.00
2019-06-20T06:02:48.519Z,1096.00
2019-06-20T06:03:48.234Z,1096.00
2019-06-20T06:04:48.187Z,1088.00
2019-06-20T06:05:48.465Z,1092.00
2019-06-20T06:06:48.154Z,1080.00
2019-06-20T06:07:48.142Z,1076.00
2019-06-20T06:08:48.478Z,1072.00
2019-06-20T06:09:48.158Z,1072.00
2019-06-20T06:10:48.112Z,1068.00
2019-06-20T06:11:48.419Z,1072.00
2019-06-20T06:12:48.086Z,1072.00
2019-06-20T06:13:48.078Z,1072.00
2019-06-20T06:14:49.100Z,1064.00
2019-06-20T06:15:48.065Z,1056.00
2019-06-20T06:16:48.040Z,1056.00
2019-06-20T06:17:48.345Z,1052.00
2019-06-20T06:18:48.024Z,1048.00
2019-06-20T06:19:48.008Z,1048.00
2019-06-20T06:20:48.313Z,1044.00
2019-06-20T06:21:47.988Z,1044.00
2019-06-20T06:22:47.977Z,1040.00
2019-06-20T06:23:48.286Z,1032.00
2019-06-20T06:25:57.184Z,1024.00
2019-06-20T06:26:59.942Z,1028.00
2019-06-20T06:27:56.815Z,1020.00
2019-06-20T06:28:57.289Z,1020.00
2019-06-20T06:29:56.786Z,1024.00
2019-06-20T06:30:57.166Z,1016.00
2019-06-20T06:31:57.148Z,1016.00
2019-06-20T06:32:57.130Z,1012.00
2019-06-20T06:33:57.057Z,1008.00
2019-06-20T06:34:56.731Z,1000.00
2019-06-20T06:35:56.717Z,996.00
2019-06-20T06:36:57.067Z,1000.00
2019-06-20T06:37:57.021Z,992.00
2019-06-20T06:38:56.685Z,996.00
2019-06-20T06:39:56.961Z,996.00
2019-06-20T06:40:56.664Z,996.00
2019-06-20T06:41:56.699Z,992.00
2019-06-20T06:42:56.987Z,1000.00
2019-06-20T06:43:56.635Z,984.00
2019-06-20T06:44:56.621Z,984.00
2019-06-20T06:45:56.960Z,992.00
2019-06-20T06:46:59.612Z,988.00
2019-06-20T06:47:56.593Z,984.00
2019-06-20T06:48:56.867Z,980.00
2019-06-20T06:49:56.565Z,984.00
2019-06-20T06:50:56.561Z,980.00
2019-06-20T06:51:56.883Z,972.00
2019-06-20T06:52:56.571Z,976.00
2019-06-20T06:53:56.520Z,968.00
2019-06-20T06:54:56.846Z,972.00
2019-06-20T06:55:56.494Z,976.00
2019-06-20T06:57:03.039Z,964.00
2019-06-20T06:57:56.735Z,964.00
2019-06-20T06:58:56.779Z,960.00
2019-06-20T06:59:56.794Z,960.00
2019-06-20T07:00:56.767Z,960.00
2019-06-20T07:01:57.267Z,960.00
2019-06-20T07:02:56.419Z,964.00
2019-06-20T07:03:56.759Z,956.00
2019-06-20T07:04:56.398Z,956.00
2019-06-20T07:05:56.378Z,952.00
2019-06-20T07:06:56.715Z,948.00
2019-06-20T07:07:56.361Z,948.00
2019-06-20T07:08:56.356Z,944.00
2019-06-20T07:09:56.703Z,940.00
2019-06-20T07:10:56.339Z,932.00
2019-06-20T07:11:56.318Z,928.00
2019-06-20T07:12:56.575Z,928.00
2019-06-20T07:13:56.312Z,928.00
2019-06-20T07:14:56.319Z,928.00
2019-06-20T07:15:56.655Z,928.00
2019-06-20T07:17:00.145Z,928.00
2019-06-20T07:17:56.249Z,924.00
2019-06-20T07:18:56.689Z,920.00
2019-06-20T07:19:56.226Z,920.00
2019-06-20T07:20:56.247Z,920.00
2019-06-20T07:21:56.580Z,912.00
2019-06-20T07:22:56.194Z,908.00
2019-06-20T07:23:56.177Z,904.00
2019-06-20T07:24:56.461Z,900.00
2019-06-20T07:25:56.163Z,896.00
2019-06-20T07:26:56.154Z,896.00
2019-06-20T07:27:56.430Z,892.00
2019-06-20T07:30:05.358Z,892.00
2019-06-20T07:31:05.333Z,896.00
2019-06-20T07:32:05.308Z,892.00
2019-06-20T07:33:05.263Z,892.00
2019-06-20T07:34:05.216Z,888.00
2019-06-20T07:35:04.939Z,888.00
2019-06-20T07:36:04.936Z,884.00
2019-06-20T07:37:05.227Z,880.00
2019-06-20T07:38:04.915Z,872.00
2019-06-20T07:39:04.919Z,868.00
2019-06-20T07:40:05.257Z,868.00
2019-06-20T07:41:05.183Z,868.00
2019-06-20T07:42:04.868Z,864.00
2019-06-20T07:43:05.200Z,860.00
2019-06-20T07:44:04.846Z,860.00
2019-06-20T07:45:04.837Z,852.00
2019-06-20T07:46:05.135Z,852.00
2019-06-20T07:47:17.115Z,844.00
2019-06-20T07:48:04.795Z,844.00
2019-06-20T07:49:05.177Z,844.00
2019-06-20T07:50:04.776Z,844.00
2019-06-20T07:51:04.770Z,840.00
2019-06-20T07:52:05.034Z,836.00
2019-06-20T07:53:04.776Z,832.00
2019-06-20T07:54:04.724Z,828.00
2019-06-20T07:55:05.058Z,824.00
2019-06-20T07:56:04.707Z,820.00
2019-06-20T07:57:04.690Z,820.00
2019-06-20T07:58:04.926Z,816.00
2019-06-20T07:59:04.710Z,816.00
2019-06-20T08:00:04.655Z,808.00
2019-06-20T08:01:11.248Z,808.00
2019-06-20T08:02:05.536Z,804.00
2019-06-20T08:03:04.963Z,804.00
2019-06-20T08:04:04.912Z,796.00
2019-06-20T08:05:04.973Z,788.00
2019-06-20T08:06:04.890Z,792.00
2019-06-20T08:07:04.872Z,788.00
2019-06-20T08:08:04.862Z,784.00
2019-06-20T08:09:04.599Z,780.00
2019-06-20T08:10:04.669Z,768.00
2019-06-20T08:11:04.869Z,776.00
2019-06-20T08:12:04.533Z,772.00
2019-06-20T08:13:04.507Z,768.00
2019-06-20T08:14:04.785Z,764.00
2019-06-20T08:15:14.607Z,760.00
2019-06-20T08:16:04.486Z,740.00
2019-06-20T08:17:04.742Z,728.00
2019-06-20T08:18:04.452Z,744.00
2019-06-20T08:19:04.439Z,748.00
2019-06-20T08:20:04.753Z,744.00
2019-06-20T08:21:04.418Z,752.00
2019-06-20T08:22:04.439Z,752.00
2019-06-20T08:23:04.396Z,704.00
2019-06-20T08:24:04.380Z,712.00
2019-06-20T08:25:05.385Z,728.00
2019-06-20T08:26:04.620Z,732.00
2019-06-20T08:27:04.923Z,728.00
2019-06-20T08:28:04.658Z,728.00
2019-06-20T08:29:16.267Z,720.00
2019-06-20T08:30:05.198Z,716.00
2019-06-20T08:31:04.817Z,712.00
2019-06-20T08:32:04.562Z,708.00
2019-06-20T08:33:12.230Z,704.00
2019-06-20T08:34:04.537Z,704.00
2019-06-20T08:35:04.596Z,696.00
2019-06-20T08:36:04.671Z,696.00
2019-06-20T08:37:04.532Z,696.00
2019-06-20T08:38:05.742Z,700.00
2019-06-20T08:39:04.508Z,696.00
2019-06-20T08:40:04.270Z,692.00
2019-06-20T08:41:04.764Z,688.00
2019-06-20T08:42:04.402Z,692.00
2019-06-20T08:43:04.271Z,568.00
2019-06-20T08:44:04.468Z,332.00
2019-06-20T08:45:04.191Z,652.00
2019-06-20T08:46:05.158Z,692.00
2019-06-20T08:47:04.461Z,708.00
2019-06-20T08:48:04.729Z,492.00
2019-06-20T08:49:04.104Z,492.00
2019-06-20T08:50:06.045Z,688.00
2019-06-20T08:51:04.569Z,692.00
2019-06-20T08:52:04.067Z,696.00
2019-06-20T08:53:05.664Z,664.00
2019-06-20T08:54:05.351Z,692.00
2019-06-20T08:55:05.406Z,320.00
2019-06-20T08:56:05.516Z,304.00
2019-06-20T08:57:05.442Z,624.00
2019-06-20T08:58:05.458Z,680.00
2019-06-20T08:59:04.885Z,672.00
2019-06-20T09:03:03.947Z,324.00
2019-06-20T09:04:04.225Z,316.00
2019-06-20T09:05:10.498Z,580.00
2019-06-20T09:06:04.220Z,632.00
2019-06-20T09:09:04.481Z,628.00
2019-06-20T09:10:04.674Z,644.00
2019-06-20T09:11:04.099Z,504.00
2019-06-20T09:12:04.998Z,448.00
2019-06-20T09:13:03.894Z,624.00
2019-06-20T09:14:04.110Z,532.00
2019-06-20T09:15:04.107Z,428.00
2019-06-20T09:16:04.092Z,632.00
2019-06-20T09:17:04.081Z,628.00
2019-06-20T09:18:04.098Z,636.00
2019-06-20T09:19:03.761Z,632.00
2019-06-20T09:20:03.748Z,624.00
2019-06-20T09:21:04.062Z,624.00
2019-06-20T09:22:05.000Z,608.00
2019-06-20T09:23:03.718Z,616.00
2019-06-20T09:24:04.187Z,624.00
2019-06-20T09:25:03.691Z,636.00
2019-06-20T09:26:03.909Z,628.00
2019-06-20T09:27:04.259Z,628.00
2019-06-20T09:28:03.662Z,628.00
2019-06-20T09:29:04.166Z,616.00
2019-06-20T09:30:03.672Z,624.00
2019-06-20T09:31:04.105Z,616.00
2019-06-20T09:32:04.652Z,628.00
2019-06-20T09:33:04.178Z,596.00
2019-06-20T09:34:05.417Z,280.00
2019-06-20T09:35:03.973Z,272.00
2019-06-20T09:36:04.025Z,296.00
2019-06-20T09:37:10.495Z,624.00
2019-06-20T09:38:03.818Z,444.00
2019-06-20T09:39:03.863Z,624.00
2019-06-20T09:40:03.905Z,640.00
2019-06-20T09:41:03.857Z,352.00
2019-06-20T09:42:03.787Z,332.00
2019-06-20T09:43:03.498Z,308.00
2019-06-20T09:44:03.472Z,608.00
2019-06-20T09:45:03.782Z,320.00
2019-06-20T09:46:03.457Z,288.00
2019-06-20T09:47:03.443Z,292.00
2019-06-20T09:48:03.758Z,616.00
2019-06-20T09:49:03.423Z,620.00
2019-06-20T09:50:03.415Z,616.00
2019-06-20T09:51:03.709Z,608.00
2019-06-20T09:52:03.393Z,608.00
2019-06-20T09:53:03.409Z,600.00
2019-06-20T09:54:03.660Z,576.00
2019-06-20T09:55:03.357Z,596.00
2019-06-20T09:56:03.348Z,296.00
2019-06-20T09:57:03.626Z,472.00
2019-06-20T09:58:03.330Z,364.00
2019-06-20T09:59:03.329Z,540.00
2019-06-20T10:00:10.004Z,600.00
2019-06-20T10:01:03.288Z,592.00
2019-06-20T10:02:03.279Z,300.00
2019-06-20T10:03:03.856Z,344.00
2019-06-20T10:04:03.315Z,584.00
2019-06-20T10:05:03.237Z,560.00
2019-06-20T10:06:13.183Z,268.00
2019-06-20T10:07:03.221Z,268.00
2019-06-20T10:08:03.209Z,476.00
2019-06-20T10:09:09.929Z,568.00
2019-06-20T10:10:03.483Z,436.00
2019-06-20T10:11:03.170Z,572.00
2019-06-20T10:12:03.695Z,576.00
2019-06-20T10:13:03.146Z,252.00
2019-06-20T10:14:03.139Z,240.00
2019-06-20T10:15:03.452Z,476.00
2019-06-20T10:16:03.438Z,540.00
2019-06-20T10:17:03.504Z,544.00
2019-06-20T10:18:03.435Z,540.00
2019-06-20T10:19:03.381Z,540.00
2019-06-20T10:20:03.119Z,536.00
2019-06-20T10:21:03.064Z,540.00
2019-06-20T10:22:03.332Z,524.00
2019-06-20T10:23:03.035Z,532.00
2019-06-20T10:24:03.025Z,540.00
2019-06-20T10:25:03.320Z,492.00
2019-06-20T10:26:03.070Z,528.00
2019-06-20T10:27:03.033Z,536.00
2019-06-20T10:28:03.329Z,540.00
2019-06-20T10:29:03.053Z,540.00
2019-06-20T10:30:13.915Z,544.00
2019-06-20T10:31:03.264Z,544.00
2019-06-20T10:32:02.947Z,524.00
2019-06-20T10:33:02.923Z,492.00
2019-06-20T10:34:03.245Z,552.00
2019-06-20T10:35:02.906Z,548.00
2019-06-20T10:36:02.889Z,548.00
2019-06-20T10:37:03.203Z,548.00
2019-06-20T10:38:02.870Z,548.00
2019-06-20T10:39:02.862Z,540.00
2019-06-20T10:40:03.112Z,540.00
2019-06-20T10:41:10.806Z,536.00
2019-06-20T10:42:03.146Z,528.00
2019-06-20T10:43:03.124Z,528.00
2019-06-20T10:44:03.182Z,524.00
2019-06-20T10:45:03.112Z,524.00
2019-06-20T10:46:03.097Z,516.00
2019-06-20T10:47:02.836Z,512.00
2019-06-20T10:48:02.759Z,508.00
2019-06-20T10:49:03.096Z,500.00
2019-06-20T10:50:02.734Z,496.00
2019-06-20T10:51:02.723Z,496.00
2019-06-20T10:52:02.988Z,492.00
2019-06-20T10:53:02.706Z,492.00
2019-06-20T10:54:02.691Z,492.00
2019-06-20T10:55:02.979Z,488.00
2019-06-20T10:56:02.662Z,492.00
2019-06-20T10:57:02.663Z,504.00
2019-06-20T10:58:02.988Z,504.00
2019-06-20T10:59:02.637Z,508.00
2019-06-20T11:00:02.677Z,504.00
2019-06-20T11:01:02.873Z,500.00
2019-06-20T11:02:02.602Z,500.00
2019-06-20T11:03:02.590Z,496.00
2019-06-20T11:04:02.862Z,496.00
2019-06-20T11:05:02.568Z,492.00
2019-06-20T11:06:02.549Z,488.00
2019-06-20T11:07:02.847Z,488.00
2019-06-20T11:08:02.545Z,484.00
2019-06-20T11:09:02.525Z,488.00
2019-06-20T11:10:02.794Z,484.00
2019-06-20T11:11:02.497Z,468.00
2019-06-20T11:12:02.843Z,484.00
2019-06-20T11:13:09.456Z,476.00
2019-06-20T11:14:02.781Z,256.00
2019-06-20T11:15:02.820Z,240.00
2019-06-20T11:16:02.763Z,236.00
2019-06-20T11:17:03.129Z,352.00
2019-06-20T11:18:02.734Z,472.00
2019-06-20T11:19:02.783Z,236.00
2019-06-20T11:20:03.036Z,484.00
2019-06-20T11:21:02.496Z,480.00
2019-06-20T11:22:02.733Z,488.00
2019-06-20T11:23:02.485Z,420.00
2019-06-20T11:24:02.390Z,224.00
2019-06-20T11:25:02.720Z,220.00
2019-06-20T11:26:02.372Z,220.00
2019-06-20T11:27:02.332Z,452.00
2019-06-20T11:28:02.629Z,456.00
2019-06-20T11:29:02.300Z,396.00
2019-06-20T11:30:02.322Z,476.00
2019-06-20T11:31:02.604Z,480.00
2019-06-20T11:32:02.310Z,480.00
2019-06-20T11:33:02.259Z,480.00
2019-06-20T11:34:02.609Z,480.00
2019-06-20T11:35:02.229Z,484.00
2019-06-20T11:36:02.251Z,476.00
2019-06-20T11:37:02.492Z,480.00
2019-06-20T11:38:02.214Z,484.00
2019-06-20T11:39:02.186Z,484.00
2019-06-20T11:40:02.452Z,464.00
2019-06-20T11:41:02.169Z,472.00
2019-06-20T11:42:02.161Z,472.00
2019-06-20T11:43:02.422Z,468.00
2019-06-20T11:44:02.133Z,460.00
2019-06-20T11:45:08.741Z,452.00
2019-06-20T11:46:02.120Z,292.00
2019-06-20T11:47:02.385Z,204.00
2019-06-20T11:48:02.396Z,204.00
2019-06-20T11:49:02.371Z,208.00
2019-06-20T11:50:02.983Z,216.00
2019-06-20T11:51:02.057Z,268.00
2019-06-20T11:52:02.398Z,456.00
2019-06-20T11:53:02.365Z,232.00
2019-06-20T11:54:02.343Z,372.00
2019-06-20T11:55:02.008Z,324.00
2019-06-20T11:56:02.034Z,412.00
2019-06-20T11:57:02.344Z,268.00
2019-06-20T11:58:01.982Z,272.00
2019-06-20T11:59:01.979Z,248.00
2019-06-20T12:00:02.281Z,344.00
2019-06-20T12:01:03.813Z,460.00
2019-06-20T12:02:01.928Z,460.00
2019-06-20T12:03:02.282Z,368.00
2019-06-20T12:04:02.012Z,428.00
2019-06-20T12:05:01.898Z,440.00
2019-06-20T12:06:02.239Z,440.00
2019-06-20T12:07:01.870Z,452.00
2019-06-20T12:08:01.862Z,460.00
2019-06-20T12:09:02.165Z,456.00
2019-06-20T12:10:01.846Z,452.00
2019-06-20T12:11:01.831Z,460.00
2019-06-20T12:12:02.104Z,460.00
2019-06-20T12:13:01.802Z,452.00
2019-06-20T12:14:01.801Z,448.00
2019-06-20T12:15:02.106Z,444.00
2019-06-20T12:16:01.784Z,440.00
2019-06-20T12:17:09.743Z,348.00
2019-06-20T12:18:01.956Z,248.00
2019-06-20T12:19:02.062Z,228.00
2019-06-20T12:20:02.034Z,228.00
2019-06-20T12:21:02.056Z,220.00
2019-06-20T12:22:02.037Z,248.00
2019-06-20T12:23:01.697Z,228.00
2019-06-20T12:24:01.678Z,228.00
2019-06-20T12:25:02.024Z,232.00
2019-06-20T12:26:01.663Z,248.00
2019-06-20T12:27:01.652Z,248.00
2019-06-20T12:28:01.972Z,228.00
2019-06-20T12:29:01.626Z,212.00
2019-06-20T12:30:01.647Z,212.00
2019-06-20T12:31:01.963Z,208.00
2019-06-20T12:32:01.594Z,208.00
2019-06-20T12:33:01.605Z,224.00
2019-06-20T12:34:01.870Z,424.00
2019-06-20T12:35:01.565Z,428.00
2019-06-20T12:36:01.601Z,424.00
2019-06-20T12:37:01.868Z,424.00
2019-06-20T12:38:01.579Z,424.00
2019-06-20T12:39:01.518Z,424.00